sensor_id;sensor_type;location;lat;lon;timestamp;temperature;humidity
40053;DHT22;25758;48.200;16.338;2024-03-17T00:04:48;12.10;99.90
40053;DHT22;25758;48.200;16.338;2024-03-17T00:07:14;12.20;99.90
40053;DHT22;25758;48.200;16.338;2024-03-17T00:09:40;12.20;99.90
40053;DHT22;25758;48.200;16.338;2024-03-17T00:12:06;12.30;99.90
40053;DHT22;25758;48.200;16.338;2024-03-17T00:14:33;12.30;99.90
40053;DHT22;25758;48.200;16.338;2024-03-17T00:17:03;12.40;99.90
40053;DHT22;25758;48.200;16.338;2024-03-17T00:19:28;12.10;99.90
40053;DHT22;25758;48.200;16.338;2024-03-17T00:21:54;12.10;99.90
40053;DHT22;25758;48.200;16.338;2024-03-17T00:24:20;12.00;99.90
40053;DHT22;25758;48.200;16.338;2024-03-17T00:29:15;12.10;99.90
40053;DHT22;25758;48.200;16.338;2024-03-17T00:31:43;12.00;99.90
40053;DHT22;25758;48.200;16.338;2024-03-17T00:34:09;12.10;99.90
40053;DHT22;25758;48.200;16.338;2024-03-17T00:36:35;12.10;99.90
40053;DHT22;25758;48.200;16.338;2024-03-17T00:39:01;12.00;99.90
40053;DHT22;25758;48.200;16.338;2024-03-17T00:41:27;12.10;99.90
40053;DHT22;25758;48.200;16.338;2024-03-17T00:43:53;12.10;99.90
40053;DHT22;25758;48.200;16.338;2024-03-17T00:46:21;12.00;99.90
40053;DHT22;25758;48.200;16.338;2024-03-17T00:48:48;12.00;99.90
40053;DHT22;25758;48.200;16.338;2024-03-17T00:51:14;12.00;99.90
40053;DHT22;25758;48.200;16.338;2024-03-17T00:53:40;12.00;99.90
40053;DHT22;25758;48.200;16.338;2024-03-17T00:56:06;12.00;99.90
40053;DHT22;25758;48.200;16.338;2024-03-17T01:00:58;12.10;99.90
40053;DHT22;25758;48.200;16.338;2024-03-17T01:05:49;12.00;99.90
40053;DHT22;25758;48.200;16.338;2024-03-17T01:08:18;12.00;99.90
40053;DHT22;25758;48.200;16.338;2024-03-17T01:10:45;12.00;99.90
40053;DHT22;25758;48.200;16.338;2024-03-17T01:13:13;12.00;99.90
40053;DHT22;25758;48.200;16.338;2024-03-17T01:15:39;12.00;99.90
40053;DHT22;25758;48.200;16.338;2024-03-17T01:18:05;12.00;99.90
40053;DHT22;25758;48.200;16.338;2024-03-17T01:20:32;12.00;99.90
40053;DHT22;25758;48.200;16.338;2024-03-17T01:22:59;12.00;99.90
40053;DHT22;25758;48.200;16.338;2024-03-17T01:25:25;12.00;99.90
40053;DHT22;25758;48.200;16.338;2024-03-17T01:27:52;11.90;99.90
40053;DHT22;25758;48.200;16.338;2024-03-17T01:30:18;12.00;99.90
40053;DHT22;25758;48.200;16.338;2024-03-17T01:32:47;12.00;99.90
40053;DHT22;25758;48.200;16.338;2024-03-17T01:35:14;11.90;99.90
40053;DHT22;25758;48.200;16.338;2024-03-17T01:37:40;11.90;99.90
40053;DHT22;25758;48.200;16.338;2024-03-17T01:40:06;11.90;99.90
40053;DHT22;25758;48.200;16.338;2024-03-17T01:42:39;11.90;99.90
40053;DHT22;25758;48.200;16.338;2024-03-17T01:47:43;11.90;99.90
40053;DHT22;25758;48.200;16.338;2024-03-17T01:50:09;11.90;99.90
40053;DHT22;25758;48.200;16.338;2024-03-17T01:52:37;11.90;99.90
40053;DHT22;25758;48.200;16.338;2024-03-17T01:55:03;11.90;99.90
40053;DHT22;25758;48.200;16.338;2024-03-17T01:57:29;11.80;99.90
40053;DHT22;25758;48.200;16.338;2024-03-17T01:59:56;11.80;99.90
40053;DHT22;25758;48.200;16.338;2024-03-17T02:02:22;11.80;99.90
40053;DHT22;25758;48.200;16.338;2024-03-17T02:09:40;11.40;99.90
40053;DHT22;25758;48.200;16.338;2024-03-17T02:12:06;11.40;99.90
40053;DHT22;25758;48.200;16.338;2024-03-17T02:14:33;11.30;99.90
40053;DHT22;25758;48.200;16.338;2024-03-17T02:16:59;11.30;99.90
40053;DHT22;25758;48.200;16.338;2024-03-17T02:19:24;11.20;99.90
40053;DHT22;25758;48.200;16.338;2024-03-17T02:21:50;11.30;99.90
40053;DHT22;25758;48.200;16.338;2024-03-17T02:24:16;11.40;99.90
40053;DHT22;25758;48.200;16.338;2024-03-17T02:26:42;11.30;99.90
40053;DHT22;25758;48.200;16.338;2024-03-17T02:29:07;11.20;99.90
40053;DHT22;25758;48.200;16.338;2024-03-17T02:33:59;11.10;99.90
40053;DHT22;25758;48.200;16.338;2024-03-17T02:38:50;10.70;99.90
40053;DHT22;25758;48.200;16.338;2024-03-17T02:41:34;10.70;99.90
40053;DHT22;25758;48.200;16.338;2024-03-17T02:44:01;10.50;99.90
40053;DHT22;25758;48.200;16.338;2024-03-17T02:46:26;10.40;99.90
40053;DHT22;25758;48.200;16.338;2024-03-17T02:48:53;10.50;99.90
40053;DHT22;25758;48.200;16.338;2024-03-17T02:51:20;10.30;99.90
40053;DHT22;25758;48.200;16.338;2024-03-17T02:53:48;10.20;99.90
40053;DHT22;25758;48.200;16.338;2024-03-17T02:56:15;10.20;99.90
40053;DHT22;25758;48.200;16.338;2024-03-17T02:58:42;10.20;99.90
40053;DHT22;25758;48.200;16.338;2024-03-17T03:01:08;10.20;99.90
40053;DHT22;25758;48.200;16.338;2024-03-17T03:03:36;10.20;99.90
40053;DHT22;25758;48.200;16.338;2024-03-17T03:06:02;10.00;99.90
40053;DHT22;25758;48.200;16.338;2024-03-17T03:08:32;9.90;99.90
40053;DHT22;25758;48.200;16.338;2024-03-17T03:10:59;10.00;99.90
40053;DHT22;25758;48.200;16.338;2024-03-17T03:13:25;10.00;99.90
40053;DHT22;25758;48.200;16.338;2024-03-17T03:15:51;10.10;99.90
40053;DHT22;25758;48.200;16.338;2024-03-17T03:20:50;10.30;99.90
40053;DHT22;25758;48.200;16.338;2024-03-17T03:23:17;10.30;99.90
40053;DHT22;25758;48.200;16.338;2024-03-17T03:28:08;10.20;99.90
40053;DHT22;25758;48.200;16.338;2024-03-17T03:30:38;10.30;99.90
40053;DHT22;25758;48.200;16.338;2024-03-17T03:33:04;10.40;99.90
40053;DHT22;25758;48.200;16.338;2024-03-17T03:35:30;10.40;99.90
40053;DHT22;25758;48.200;16.338;2024-03-17T03:40:22;10.40;99.90
40053;DHT22;25758;48.200;16.338;2024-03-17T03:42:48;10.50;99.90
40053;DHT22;25758;48.200;16.338;2024-03-17T03:45:14;10.50;99.90
40053;DHT22;25758;48.200;16.338;2024-03-17T03:47:40;10.60;99.90
40053;DHT22;25758;48.200;16.338;2024-03-17T03:50:09;10.70;99.90
40053;DHT22;25758;48.200;16.338;2024-03-17T03:52:39;10.70;99.90
40053;DHT22;25758;48.200;16.338;2024-03-17T03:55:09;10.80;99.90
40053;DHT22;25758;48.200;16.338;2024-03-17T03:57:43;10.80;99.90
40053;DHT22;25758;48.200;16.338;2024-03-17T04:00:14;10.70;99.90
40053;DHT22;25758;48.200;16.338;2024-03-17T04:02:43;10.80;99.90
40053;DHT22;25758;48.200;16.338;2024-03-17T04:05:09;10.80;99.90
40053;DHT22;25758;48.200;16.338;2024-03-17T04:07:36;10.70;99.90
40053;DHT22;25758;48.200;16.338;2024-03-17T04:10:03;10.70;99.90
40053;DHT22;25758;48.200;16.338;2024-03-17T04:12:29;10.60;99.90
40053;DHT22;25758;48.200;16.338;2024-03-17T04:14:58;10.60;99.90
40053;DHT22;25758;48.200;16.338;2024-03-17T04:17:24;10.40;99.90
40053;DHT22;25758;48.200;16.338;2024-03-17T04:19:50;10.20;99.90
40053;DHT22;25758;48.200;16.338;2024-03-17T04:22:17;10.20;99.90
40053;DHT22;25758;48.200;16.338;2024-03-17T04:24:43;10.30;99.90
40053;DHT22;25758;48.200;16.338;2024-03-17T04:27:09;9.90;99.90
40053;DHT22;25758;48.200;16.338;2024-03-17T04:29:35;9.90;99.90
40053;DHT22;25758;48.200;16.338;2024-03-17T04:32:01;9.90;99.90
40053;DHT22;25758;48.200;16.338;2024-03-17T04:34:27;9.80;99.90
40053;DHT22;25758;48.200;16.338;2024-03-17T04:39:19;10.00;99.90
40053;DHT22;25758;48.200;16.338;2024-03-17T04:41:47;10.10;99.90
40053;DHT22;25758;48.200;16.338;2024-03-17T04:44:13;10.10;99.90
40053;DHT22;25758;48.200;16.338;2024-03-17T04:46:39;10.30;99.90
40053;DHT22;25758;48.200;16.338;2024-03-17T04:49:04;10.30;99.90
40053;DHT22;25758;48.200;16.338;2024-03-17T04:51:30;10.30;99.90
40053;DHT22;25758;48.200;16.338;2024-03-17T04:53:58;10.40;99.90
40053;DHT22;25758;48.200;16.338;2024-03-17T04:58:50;10.40;99.90
40053;DHT22;25758;48.200;16.338;2024-03-17T05:01:16;10.30;99.90
40053;DHT22;25758;48.200;16.338;2024-03-17T05:03:42;10.30;99.90
40053;DHT22;25758;48.200;16.338;2024-03-17T05:06:07;10.20;99.90
40053;DHT22;25758;48.200;16.338;2024-03-17T05:08:34;10.20;99.90
40053;DHT22;25758;48.200;16.338;2024-03-17T05:11:02;10.30;99.90
40053;DHT22;25758;48.200;16.338;2024-03-17T05:13:32;10.30;99.90
40053;DHT22;25758;48.200;16.338;2024-03-17T05:15:58;10.20;99.90
40053;DHT22;25758;48.200;16.338;2024-03-17T05:18:24;10.40;99.90
40053;DHT22;25758;48.200;16.338;2024-03-17T05:20:58;10.30;99.90
40053;DHT22;25758;48.200;16.338;2024-03-17T05:23:26;10.40;99.90
40053;DHT22;25758;48.200;16.338;2024-03-17T05:25:52;10.30;99.90
40053;DHT22;25758;48.200;16.338;2024-03-17T05:28:18;10.40;99.90
40053;DHT22;25758;48.200;16.338;2024-03-17T05:30:43;10.40;99.90
40053;DHT22;25758;48.200;16.338;2024-03-17T05:38:01;10.30;99.90
40053;DHT22;25758;48.200;16.338;2024-03-17T05:45:22;10.30;99.90
40053;DHT22;25758;48.200;16.338;2024-03-17T05:47:50;10.20;99.90
40053;DHT22;25758;48.200;16.338;2024-03-17T05:50:15;10.20;99.90
40053;DHT22;25758;48.200;16.338;2024-03-17T05:52:41;10.30;99.90
40053;DHT22;25758;48.200;16.338;2024-03-17T05:55:07;10.10;99.90
40053;DHT22;25758;48.200;16.338;2024-03-17T05:57:33;10.10;99.90
40053;DHT22;25758;48.200;16.338;2024-03-17T06:04:50;10.10;99.90
40053;DHT22;25758;48.200;16.338;2024-03-17T06:07:16;10.00;99.90
40053;DHT22;25758;48.200;16.338;2024-03-17T06:12:08;9.90;99.90
40053;DHT22;25758;48.200;16.338;2024-03-17T06:19:25;10.10;99.90
40053;DHT22;25758;48.200;16.338;2024-03-17T06:21:51;10.20;99.90
40053;DHT22;25758;48.200;16.338;2024-03-17T06:24:17;10.20;99.90
40053;DHT22;25758;48.200;16.338;2024-03-17T06:29:08;10.30;99.90
40053;DHT22;25758;48.200;16.338;2024-03-17T06:31:34;10.20;99.90
40053;DHT22;25758;48.200;16.338;2024-03-17T06:33:59;10.10;99.90
40053;DHT22;25758;48.200;16.338;2024-03-17T06:36:25;9.90;99.90
40053;DHT22;25758;48.200;16.338;2024-03-17T06:38:50;9.80;99.90
40053;DHT22;25758;48.200;16.338;2024-03-17T06:43:42;9.90;99.90
40053;DHT22;25758;48.200;16.338;2024-03-17T06:46:09;10.00;99.90
40053;DHT22;25758;48.200;16.338;2024-03-17T06:48:34;10.00;99.90
40053;DHT22;25758;48.200;16.338;2024-03-17T06:51:00;10.10;99.90
40053;DHT22;25758;48.200;16.338;2024-03-17T06:53:26;10.20;99.90
40053;DHT22;25758;48.200;16.338;2024-03-17T06:55:58;10.30;99.90
40053;DHT22;25758;48.200;16.338;2024-03-17T06:58:25;10.30;99.90
40053;DHT22;25758;48.200;16.338;2024-03-17T07:00:56;10.30;99.90
40053;DHT22;25758;48.200;16.338;2024-03-17T07:03:26;10.50;99.90
40053;DHT22;25758;48.200;16.338;2024-03-17T07:05:53;10.50;99.90
40053;DHT22;25758;48.200;16.338;2024-03-17T07:08:19;10.50;99.90
40053;DHT22;25758;48.200;16.338;2024-03-17T07:11:00;10.40;99.90
40053;DHT22;25758;48.200;16.338;2024-03-17T07:13:32;10.30;99.90
40053;DHT22;25758;48.200;16.338;2024-03-17T07:16:02;10.40;99.90
40053;DHT22;25758;48.200;16.338;2024-03-17T07:18:28;10.50;99.90
40053;DHT22;25758;48.200;16.338;2024-03-17T07:21:00;10.60;99.90
40053;DHT22;25758;48.200;16.338;2024-03-17T07:23:26;10.60;99.90
40053;DHT22;25758;48.200;16.338;2024-03-17T07:25:59;10.60;99.90
40053;DHT22;25758;48.200;16.338;2024-03-17T07:28:26;10.70;99.90
40053;DHT22;25758;48.200;16.338;2024-03-17T07:30:56;10.60;99.70
40053;DHT22;25758;48.200;16.338;2024-03-17T07:33:22;10.60;99.90
40053;DHT22;25758;48.200;16.338;2024-03-17T07:35:55;10.70;99.90
40053;DHT22;25758;48.200;16.338;2024-03-17T07:38:22;10.80;99.80
40053;DHT22;25758;48.200;16.338;2024-03-17T07:43:27;10.80;99.30
40053;DHT22;25758;48.200;16.338;2024-03-17T07:48:29;11.00;98.90
40053;DHT22;25758;48.200;16.338;2024-03-17T07:51:00;11.00;98.80
40053;DHT22;25758;48.200;16.338;2024-03-17T07:53:32;11.10;99.10
40053;DHT22;25758;48.200;16.338;2024-03-17T07:56:03;11.10;98.60
40053;DHT22;25758;48.200;16.338;2024-03-17T07:58:30;11.00;98.00
40053;DHT22;25758;48.200;16.338;2024-03-17T08:00:59;11.10;98.90
40053;DHT22;25758;48.200;16.338;2024-03-17T08:03:26;11.00;98.00
40053;DHT22;25758;48.200;16.338;2024-03-17T08:05:51;11.10;98.30
40053;DHT22;25758;48.200;16.338;2024-03-17T08:10:44;11.10;98.50
40053;DHT22;25758;48.200;16.338;2024-03-17T08:13:10;11.30;98.90
40053;DHT22;25758;48.200;16.338;2024-03-17T08:15:35;11.30;98.30
40053;DHT22;25758;48.200;16.338;2024-03-17T08:18:01;11.40;97.50
40053;DHT22;25758;48.200;16.338;2024-03-17T08:20:29;11.30;97.50
40053;DHT22;25758;48.200;16.338;2024-03-17T08:22:55;11.30;97.70
40053;DHT22;25758;48.200;16.338;2024-03-17T08:25:20;11.30;97.80
40053;DHT22;25758;48.200;16.338;2024-03-17T08:27:46;11.30;98.10
40053;DHT22;25758;48.200;16.338;2024-03-17T08:30:12;11.40;97.60
40053;DHT22;25758;48.200;16.338;2024-03-17T08:32:39;11.40;97.30
40053;DHT22;25758;48.200;16.338;2024-03-17T08:35:06;11.50;97.10
40053;DHT22;25758;48.200;16.338;2024-03-17T08:37:32;11.50;97.60
40053;DHT22;25758;48.200;16.338;2024-03-17T08:42:24;11.50;96.90
40053;DHT22;25758;48.200;16.338;2024-03-17T08:44:49;11.50;96.20
40053;DHT22;25758;48.200;16.338;2024-03-17T08:47:15;11.50;97.20
40053;DHT22;25758;48.200;16.338;2024-03-17T08:49:41;11.50;96.50
40053;DHT22;25758;48.200;16.338;2024-03-17T08:52:06;11.60;96.40
40053;DHT22;25758;48.200;16.338;2024-03-17T08:54:32;11.50;95.70
40053;DHT22;25758;48.200;16.338;2024-03-17T08:56:58;11.60;96.10
40053;DHT22;25758;48.200;16.338;2024-03-17T08:59:24;11.60;95.90
40053;DHT22;25758;48.200;16.338;2024-03-17T09:04:15;11.70;96.00
40053;DHT22;25758;48.200;16.338;2024-03-17T09:06:41;11.70;96.20
40053;DHT22;25758;48.200;16.338;2024-03-17T09:09:07;11.90;95.30
40053;DHT22;25758;48.200;16.338;2024-03-17T09:11:33;11.80;96.20
40053;DHT22;25758;48.200;16.338;2024-03-17T09:13:59;11.90;96.60
40053;DHT22;25758;48.200;16.338;2024-03-17T09:16:24;12.00;95.80
40053;DHT22;25758;48.200;16.338;2024-03-17T09:18:51;12.10;96.90
40053;DHT22;25758;48.200;16.338;2024-03-17T09:23:43;12.20;96.10
40053;DHT22;25758;48.200;16.338;2024-03-17T09:26:10;12.50;96.40
40053;DHT22;25758;48.200;16.338;2024-03-17T09:28:37;12.70;95.50
40053;DHT22;25758;48.200;16.338;2024-03-17T09:31:03;13.00;95.60
40053;DHT22;25758;48.200;16.338;2024-03-17T09:33:32;13.40;93.80
40053;DHT22;25758;48.200;16.338;2024-03-17T09:36:06;13.90;94.30
40053;DHT22;25758;48.200;16.338;2024-03-17T09:38:33;14.10;94.10
40053;DHT22;25758;48.200;16.338;2024-03-17T09:40:59;14.40;93.30
40053;DHT22;25758;48.200;16.338;2024-03-17T09:43:28;14.60;93.30
40053;DHT22;25758;48.200;16.338;2024-03-17T09:45:54;14.60;92.70
40053;DHT22;25758;48.200;16.338;2024-03-17T09:48:26;14.80;92.90
40053;DHT22;25758;48.200;16.338;2024-03-17T09:50:54;14.80;91.30
40053;DHT22;25758;48.200;16.338;2024-03-17T09:53:26;14.80;91.90
40053;DHT22;25758;48.200;16.338;2024-03-17T09:56:09;14.80;90.30
40053;DHT22;25758;48.200;16.338;2024-03-17T09:58:35;14.70;91.70
40053;DHT22;25758;48.200;16.338;2024-03-17T10:01:01;14.70;90.70
40053;DHT22;25758;48.200;16.338;2024-03-17T10:03:47;14.90;91.20
40053;DHT22;25758;48.200;16.338;2024-03-17T10:06:22;14.90;91.40
40053;DHT22;25758;48.200;16.338;2024-03-17T10:08:50;15.10;90.90
40053;DHT22;25758;48.200;16.338;2024-03-17T10:11:20;15.10;90.40
40053;DHT22;25758;48.200;16.338;2024-03-17T10:14:02;15.20;90.70
40053;DHT22;25758;48.200;16.338;2024-03-17T10:16:29;15.40;90.70
40053;DHT22;25758;48.200;16.338;2024-03-17T10:19:21;15.60;89.60
40053;DHT22;25758;48.200;16.338;2024-03-17T10:21:48;15.60;89.50
40053;DHT22;25758;48.200;16.338;2024-03-17T10:24:22;15.60;90.10
40053;DHT22;25758;48.200;16.338;2024-03-17T10:26:50;15.50;90.30
40053;DHT22;25758;48.200;16.338;2024-03-17T10:29:29;15.40;89.90
40053;DHT22;25758;48.200;16.338;2024-03-17T10:32:01;15.20;90.20
40053;DHT22;25758;48.200;16.338;2024-03-17T10:34:28;15.10;90.00
40053;DHT22;25758;48.200;16.338;2024-03-17T10:39:32;15.10;90.50
40053;DHT22;25758;48.200;16.338;2024-03-17T10:42:02;15.00;89.50
40053;DHT22;25758;48.200;16.338;2024-03-17T10:44:29;15.00;90.30
40053;DHT22;25758;48.200;16.338;2024-03-17T10:46:56;15.00;89.20
40053;DHT22;25758;48.200;16.338;2024-03-17T10:49:33;14.90;89.50
40053;DHT22;25758;48.200;16.338;2024-03-17T10:52:07;14.80;89.60
40053;DHT22;25758;48.200;16.338;2024-03-17T10:54:34;14.80;89.30
40053;DHT22;25758;48.200;16.338;2024-03-17T10:59:53;14.70;89.10
40053;DHT22;25758;48.200;16.338;2024-03-17T11:04:55;14.80;89.30
40053;DHT22;25758;48.200;16.338;2024-03-17T11:07:22;14.90;88.70
40053;DHT22;25758;48.200;16.338;2024-03-17T11:09:49;14.90;89.00
40053;DHT22;25758;48.200;16.338;2024-03-17T11:17:51;14.50;87.70
40053;DHT22;25758;48.200;16.338;2024-03-17T11:20:21;14.60;88.50
40053;DHT22;25758;48.200;16.338;2024-03-17T11:22:50;14.80;89.50
40053;DHT22;25758;48.200;16.338;2024-03-17T11:27:56;14.80;87.90
40053;DHT22;25758;48.200;16.338;2024-03-17T11:39:00;15.20;86.50
40053;DHT22;25758;48.200;16.338;2024-03-17T11:41:45;15.20;88.90
40053;DHT22;25758;48.200;16.338;2024-03-17T11:46:42;15.50;84.50
40053;DHT22;25758;48.200;16.338;2024-03-17T11:49:23;15.70;85.40
40053;DHT22;25758;48.200;16.338;2024-03-17T11:51:53;15.70;86.30
40053;DHT22;25758;48.200;16.338;2024-03-17T11:54:22;15.90;85.60
40053;DHT22;25758;48.200;16.338;2024-03-17T11:56:50;15.90;85.20
40053;DHT22;25758;48.200;16.338;2024-03-17T11:59:20;16.00;85.80
40053;DHT22;25758;48.200;16.338;2024-03-17T12:01:50;16.10;83.40
40053;DHT22;25758;48.200;16.338;2024-03-17T12:04:17;16.10;84.10
40053;DHT22;25758;48.200;16.338;2024-03-17T12:06:56;16.10;83.90
40053;DHT22;25758;48.200;16.338;2024-03-17T12:09:24;16.10;85.30
40053;DHT22;25758;48.200;16.338;2024-03-17T12:12:09;16.10;84.10
40053;DHT22;25758;48.200;16.338;2024-03-17T12:14:38;16.10;85.70
40053;DHT22;25758;48.200;16.338;2024-03-17T12:17:07;16.00;84.10
40053;DHT22;25758;48.200;16.338;2024-03-17T12:19:33;16.00;83.90
40053;DHT22;25758;48.200;16.338;2024-03-17T12:22:00;15.90;83.70
40053;DHT22;25758;48.200;16.338;2024-03-17T12:24:28;15.90;84.20
40053;DHT22;25758;48.200;16.338;2024-03-17T12:26:56;15.90;86.10
40053;DHT22;25758;48.200;16.338;2024-03-17T12:29:34;16.00;86.10
40053;DHT22;25758;48.200;16.338;2024-03-17T12:32:03;16.00;83.40
40053;DHT22;25758;48.200;16.338;2024-03-17T12:34:32;15.80;83.10
40053;DHT22;25758;48.200;16.338;2024-03-17T12:37:00;16.00;84.00
40053;DHT22;25758;48.200;16.338;2024-03-17T12:39:28;15.90;85.10
40053;DHT22;25758;48.200;16.338;2024-03-17T12:44:39;16.00;84.70
40053;DHT22;25758;48.200;16.338;2024-03-17T12:47:08;16.00;85.90
40053;DHT22;25758;48.200;16.338;2024-03-17T12:49:34;16.00;85.60
40053;DHT22;25758;48.200;16.338;2024-03-17T12:52:01;16.00;84.70
40053;DHT22;25758;48.200;16.338;2024-03-17T12:54:28;16.00;84.80
40053;DHT22;25758;48.200;16.338;2024-03-17T12:57:11;16.00;85.00
40053;DHT22;25758;48.200;16.338;2024-03-17T12:59:56;15.80;81.20
40053;DHT22;25758;48.200;16.338;2024-03-17T13:02:43;15.80;84.40
40053;DHT22;25758;48.200;16.338;2024-03-17T13:05:17;15.80;84.80
40053;DHT22;25758;48.200;16.338;2024-03-17T13:07:46;15.80;84.70
40053;DHT22;25758;48.200;16.338;2024-03-17T13:10:17;15.90;83.30
40053;DHT22;25758;48.200;16.338;2024-03-17T13:15:17;16.00;84.10
40053;DHT22;25758;48.200;16.338;2024-03-17T13:17:45;15.80;84.40
40053;DHT22;25758;48.200;16.338;2024-03-17T13:20:15;15.70;82.40
40053;DHT22;25758;48.200;16.338;2024-03-17T13:22:45;15.60;82.50
40053;DHT22;25758;48.200;16.338;2024-03-17T13:25:16;15.70;83.80
40053;DHT22;25758;48.200;16.338;2024-03-17T13:27:45;15.70;84.10
40053;DHT22;25758;48.200;16.338;2024-03-17T13:30:12;15.70;83.30
40053;DHT22;25758;48.200;16.338;2024-03-17T13:32:39;15.70;84.10
40053;DHT22;25758;48.200;16.338;2024-03-17T13:35:15;15.70;85.50
40053;DHT22;25758;48.200;16.338;2024-03-17T13:37:41;15.60;82.50
40053;DHT22;25758;48.200;16.338;2024-03-17T13:40:07;15.50;84.20
40053;DHT22;25758;48.200;16.338;2024-03-17T13:42:33;15.50;84.70
40053;DHT22;25758;48.200;16.338;2024-03-17T13:44:59;15.50;85.60
40053;DHT22;25758;48.200;16.338;2024-03-17T13:49:50;15.40;85.00
40053;DHT22;25758;48.200;16.338;2024-03-17T13:52:16;15.50;84.60
40053;DHT22;25758;48.200;16.338;2024-03-17T13:54:42;15.50;85.00
40053;DHT22;25758;48.200;16.338;2024-03-17T13:57:07;15.50;85.20
40053;DHT22;25758;48.200;16.338;2024-03-17T13:59:33;15.50;85.00
40053;DHT22;25758;48.200;16.338;2024-03-17T14:01:59;15.50;85.90
40053;DHT22;25758;48.200;16.338;2024-03-17T14:06:51;15.50;84.70
40053;DHT22;25758;48.200;16.338;2024-03-17T14:09:17;15.50;84.50
40053;DHT22;25758;48.200;16.338;2024-03-17T14:11:46;15.50;83.20
40053;DHT22;25758;48.200;16.338;2024-03-17T14:14:14;15.50;85.30
40053;DHT22;25758;48.200;16.338;2024-03-17T14:16:40;15.50;83.70
40053;DHT22;25758;48.200;16.338;2024-03-17T14:19:08;15.50;84.10
40053;DHT22;25758;48.200;16.338;2024-03-17T14:23:59;15.60;84.60
40053;DHT22;25758;48.200;16.338;2024-03-17T14:26:26;15.50;84.90
40053;DHT22;25758;48.200;16.338;2024-03-17T14:28:52;15.60;84.50
40053;DHT22;25758;48.200;16.338;2024-03-17T14:31:20;15.60;84.60
40053;DHT22;25758;48.200;16.338;2024-03-17T14:33:45;15.50;83.00
40053;DHT22;25758;48.200;16.338;2024-03-17T14:36:11;15.60;82.10
40053;DHT22;25758;48.200;16.338;2024-03-17T14:38:37;15.60;83.10
40053;DHT22;25758;48.200;16.338;2024-03-17T14:41:02;15.60;84.90
40053;DHT22;25758;48.200;16.338;2024-03-17T14:43:30;15.60;84.70
40053;DHT22;25758;48.200;16.338;2024-03-17T14:45:55;15.60;84.60
40053;DHT22;25758;48.200;16.338;2024-03-17T14:48:21;15.70;85.00
40053;DHT22;25758;48.200;16.338;2024-03-17T14:50:47;15.70;84.90
40053;DHT22;25758;48.200;16.338;2024-03-17T14:53:12;15.70;84.80
40053;DHT22;25758;48.200;16.338;2024-03-17T14:55:38;15.70;83.30
40053;DHT22;25758;48.200;16.338;2024-03-17T14:58:04;15.70;84.20
40053;DHT22;25758;48.200;16.338;2024-03-17T15:00:32;15.70;84.20
40053;DHT22;25758;48.200;16.338;2024-03-17T15:02:57;15.70;82.90
40053;DHT22;25758;48.200;16.338;2024-03-17T15:05:23;15.70;83.60
40053;DHT22;25758;48.200;16.338;2024-03-17T15:07:50;15.60;84.10
40053;DHT22;25758;48.200;16.338;2024-03-17T15:10:16;15.60;84.20
40053;DHT22;25758;48.200;16.338;2024-03-17T15:12:49;15.50;83.50
40053;DHT22;25758;48.200;16.338;2024-03-17T15:15:15;15.40;84.30
40053;DHT22;25758;48.200;16.338;2024-03-17T15:17:41;15.20;82.70
40053;DHT22;25758;48.200;16.338;2024-03-17T15:20:11;15.30;84.20
40053;DHT22;25758;48.200;16.338;2024-03-17T15:22:45;15.40;82.90
40053;DHT22;25758;48.200;16.338;2024-03-17T15:25:12;15.40;83.70
40053;DHT22;25758;48.200;16.338;2024-03-17T15:27:40;15.50;83.60
40053;DHT22;25758;48.200;16.338;2024-03-17T15:30:07;15.60;83.90
40053;DHT22;25758;48.200;16.338;2024-03-17T15:32:32;15.60;83.70
40053;DHT22;25758;48.200;16.338;2024-03-17T15:34:58;15.60;83.70
40053;DHT22;25758;48.200;16.338;2024-03-17T15:37:26;15.50;84.10
40053;DHT22;25758;48.200;16.338;2024-03-17T15:39:51;15.50;84.40
40053;DHT22;25758;48.200;16.338;2024-03-17T15:42:17;15.40;83.30
40053;DHT22;25758;48.200;16.338;2024-03-17T15:44:45;15.30;82.70
40053;DHT22;25758;48.200;16.338;2024-03-17T15:47:11;15.20;84.50
40053;DHT22;25758;48.200;16.338;2024-03-17T15:52:02;14.90;83.80
40053;DHT22;25758;48.200;16.338;2024-03-17T15:54:28;14.70;84.30
40053;DHT22;25758;48.200;16.338;2024-03-17T15:56:55;14.70;84.00
40053;DHT22;25758;48.200;16.338;2024-03-17T16:01:48;14.60;83.40
40053;DHT22;25758;48.200;16.338;2024-03-17T16:04:17;14.60;85.20
40053;DHT22;25758;48.200;16.338;2024-03-17T16:06:44;14.60;86.30
40053;DHT22;25758;48.200;16.338;2024-03-17T16:09:13;14.40;84.40
40053;DHT22;25758;48.200;16.338;2024-03-17T16:11:39;14.40;86.00
40053;DHT22;25758;48.200;16.338;2024-03-17T16:14:06;14.40;85.90
40053;DHT22;25758;48.200;16.338;2024-03-17T16:16:33;14.20;84.80
40053;DHT22;25758;48.200;16.338;2024-03-17T16:18:59;14.20;86.10
40053;DHT22;25758;48.200;16.338;2024-03-17T16:21:26;14.20;86.20
40053;DHT22;25758;48.200;16.338;2024-03-17T16:24:12;14.20;85.50
40053;DHT22;25758;48.200;16.338;2024-03-17T16:26:39;14.20;85.50
40053;DHT22;25758;48.200;16.338;2024-03-17T16:29:09;14.10;85.00
40053;DHT22;25758;48.200;16.338;2024-03-17T16:31:35;14.00;85.30
40053;DHT22;25758;48.200;16.338;2024-03-17T16:34:01;14.00;85.80
40053;DHT22;25758;48.200;16.338;2024-03-17T16:36:28;14.00;85.50
40053;DHT22;25758;48.200;16.338;2024-03-17T16:38:55;14.00;86.20
40053;DHT22;25758;48.200;16.338;2024-03-17T16:41:24;13.90;84.80
40053;DHT22;25758;48.200;16.338;2024-03-17T16:43:58;13.90;86.00
40053;DHT22;25758;48.200;16.338;2024-03-17T16:49:15;13.40;85.70
40053;DHT22;25758;48.200;16.338;2024-03-17T16:51:42;13.50;86.50
40053;DHT22;25758;48.200;16.338;2024-03-17T16:54:09;13.50;87.00
40053;DHT22;25758;48.200;16.338;2024-03-17T16:56:36;13.50;86.80
40053;DHT22;25758;48.200;16.338;2024-03-17T16:59:03;13.40;84.60
40053;DHT22;25758;48.200;16.338;2024-03-17T17:01:28;13.40;86.10
40053;DHT22;25758;48.200;16.338;2024-03-17T17:03:54;13.50;86.00
40053;DHT22;25758;48.200;16.338;2024-03-17T17:06:22;13.50;86.30
40053;DHT22;25758;48.200;16.338;2024-03-17T17:08:48;13.50;86.50
40053;DHT22;25758;48.200;16.338;2024-03-17T17:11:17;13.50;86.30
40053;DHT22;25758;48.200;16.338;2024-03-17T17:13:44;13.50;86.60
40053;DHT22;25758;48.200;16.338;2024-03-17T17:16:11;13.40;85.70
40053;DHT22;25758;48.200;16.338;2024-03-17T17:19:07;13.40;85.10
40053;DHT22;25758;48.200;16.338;2024-03-17T17:21:36;13.40;86.70
40053;DHT22;25758;48.200;16.338;2024-03-17T17:24:02;13.30;85.90
40053;DHT22;25758;48.200;16.338;2024-03-17T17:26:30;13.30;86.40